• Join FlightAware (Why Join?)
  • Login
  • US Flag 
03:48AM EDT


 

Airport Tracker/Info


-or-


 

Live Flight TrackerFlight Track Log ✈ TYR94 ✈ 10-Apr-2013 ✈ KIAD - LOWW / VIE

Flight Track Log - Related Links

Times and Time Zones

All times are in EDT time to prevent confusion due to time zone crossing. See the TYR94 flight status page for this flight to view local times or setup timezone preferences in your user account.

Time Position Orientation Groundspeed Altitude Reporting Facility
EDT Latitude Longitude Course Direction KTS MPH feet Rate Location/Type
05:54PM 39.3857 -76.8369 48° Northeast  Level Estimated
05:55PM 39.4729 -76.7114 48° Northeast  Level Estimated
05:56PM 39.5600 -76.5855 48° Northeast  Level Estimated
05:57PM 39.6470 -76.4594 48° Northeast  Level Estimated
05:58PM 39.7339 -76.3329 48° Northeast  Level Estimated
05:59PM 39.8206 -76.2061 48° Northeast  Level Estimated
06:00PM 39.9071 -76.0789 48° Northeast  Level Estimated
06:01PM 39.9935 -75.9515 48° Northeast  Level Estimated
06:02PM 40.0798 -75.8237 49° Northeast  Level Estimated
06:03PM 40.1660 -75.6956 49° Northeast  Level Estimated
06:04PM 40.2520 -75.5672 49° Northeast  Level Estimated
06:05PM 40.3378 -75.4385 49° Northeast  Level Estimated
06:06PM 40.4235 -75.3094 49° Northeast  Level Estimated
06:07PM 40.5091 -75.1800 49° Northeast  Level Estimated
06:08PM 40.5945 -75.0502 49° Northeast  Level Estimated
06:09PM 40.6798 -74.9202 49° Northeast  Level Estimated
06:10PM 40.7650 -74.7898 49° Northeast  Level Estimated
06:11PM 40.8499 -74.6590 49° Northeast  Level Estimated
06:12PM 40.9348 -74.5280 49° Northeast  Level Estimated
06:13PM 41.0195 -74.3966 49° Northeast  Level Estimated
06:14PM 41.1040 -74.2648 50° Northeast  Level Estimated
06:15PM 41.1884 -74.1327 50° Northeast  Level Estimated
06:16PM 41.2727 -74.0003 50° Northeast  Level Estimated
06:17PM 41.3567 -73.8676 50° Northeast  Level Estimated
06:18PM 41.4407 -73.7344 50° Northeast  Level Estimated
06:19PM 41.5245 -73.6010 50° Northeast  Level Estimated
06:20PM 41.6081 -73.4672 50° Northeast  Level Estimated
06:21PM 41.6916 -73.3330 50° Northeast  Level Estimated
06:22PM 41.7749 -73.1985 50° Northeast  Level Estimated
06:23PM 41.8580 -73.0637 50° Northeast  Level Estimated
06:24PM 41.9410 -72.9285 50° Northeast  Level Estimated
06:25PM 42.0239 -72.7930 51° Northeast  Level Estimated
06:26PM 42.1065 -72.6571 51° Northeast  Level Estimated
06:27PM 42.1891 -72.5208 51° Northeast  Level Estimated
06:28PM 42.2714 -72.3842 51° Northeast  Level Estimated
06:29PM 42.3536 -72.2472 51° Northeast  Level Estimated
06:30PM 42.4357 -72.1099 51° Northeast  Level Estimated
06:31PM 42.5175 -71.9722 51° Northeast  Level Estimated
06:32PM 42.5992 -71.8342 51° Northeast  Level Estimated
06:33PM 42.6808 -71.6958 51° Northeast  Level Estimated
06:34PM 42.7621 -71.5570 51° Northeast  Level Estimated
06:35PM 42.8433 -71.4178 51° Northeast  Level Estimated
06:36PM 42.9244 -71.2784 52° Northeast  Level Estimated
06:37PM 43.0052 -71.1385 52° Northeast  Level Estimated
06:38PM 43.0859 -70.9982 52° Northeast  Level Estimated
06:39PM 43.1664 -70.8576 52° Northeast  Level Estimated
06:40PM 43.2468 -70.7167 52° Northeast  Level Estimated
06:41PM 43.3270 -70.5753 52° Northeast  Level Estimated
06:42PM 43.4070 -70.4336 52° Northeast  Level Estimated
06:43PM 43.4868 -70.2915 52° Northeast  Level Estimated
06:44PM 43.5664 -70.1490 52° Northeast  Level Estimated
06:45PM 43.6459 -70.0062 52° Northeast  Level Estimated
06:46PM 43.7252 -69.8629 53° Northeast  Level Estimated
06:47PM 43.8043 -69.7193 53° Northeast  Level Estimated
06:48PM 43.8832 -69.5753 53° Northeast  Level Estimated
06:49PM 43.9620 -69.4310 53° Northeast  Level Estimated
06:50PM 44.0406 -69.2862 53° Northeast  Level Estimated
06:51PM 44.1189 -69.1411 53° Northeast  Level Estimated
06:52PM 44.1971 -68.9956 53° Northeast  Level Estimated
06:53PM 44.2752 -68.8496 53° Northeast  Level Estimated
06:54PM 44.3530 -68.7033 53° Northeast  Level Estimated
06:55PM 44.4306 -68.5567 53° Northeast  Level Estimated
06:56PM 44.5081 -68.4096 54° Northeast  Level Estimated
06:57PM 44.5854 -68.2621 54° Northeast  Level Estimated
06:58PM 44.6624 -68.1143 54° Northeast  Level Estimated
06:59PM 44.7393 -67.9660 54° Northeast  Level Estimated
07:00PM 44.8160 -67.8174 54° Northeast  Level Estimated
07:01PM 44.8925 -67.6683 54° Northeast  Level Estimated
07:02PM 44.9688 -67.5189 54° Northeast  Level Estimated
07:03PM 45.0449 -67.3691 54° Northeast  Level Estimated
07:04PM 45.1208 -67.2188 54° Northeast  Level Estimated
07:05PM 45.1965 -67.0682 54° Northeast  Level Estimated
07:06PM 45.2720 -66.9172 55° Northeast  Level Estimated
07:07PM 45.3474 -66.7657 55° Northeast  Level Estimated
07:08PM 45.4225 -66.6139 55° Northeast  Level Estimated
07:09PM 45.4974 -66.4617 55° Northeast  Level Estimated
07:10PM 45.5721 -66.3090 55° Northeast  Level Estimated
07:11PM 45.6466 -66.1560 55° Northeast  Level Estimated
07:12PM 45.7209 -66.0025 55° Northeast  Level Estimated
07:13PM 45.7950 -65.8486 55° Northeast  Level Estimated
07:14PM 45.8689 -65.6944 55° Northeast  Level Estimated
07:15PM 45.9426 -65.5397 56° Northeast  Level Estimated
07:16PM 46.0160 -65.3846 56° Northeast  Level Estimated
07:17PM 46.0893 -65.2290 56° Northeast  Level Estimated
07:18PM 46.1624 -65.0731 56° Northeast  Level Estimated
07:19PM 46.2352 -64.9168 56° Northeast  Level Estimated
07:20PM 46.3078 -64.7600 56° Northeast  Level Estimated
07:21PM 46.3802 -64.6029 56° Northeast  Level Estimated
07:22PM 46.4524 -64.4453 56° Northeast  Level Estimated
07:23PM 46.5244 -64.2873 56° Northeast  Level Estimated
07:24PM 46.5962 -64.1289 57° Northeast  Level Estimated
07:25PM 46.6677 -63.9700 57° Northeast  Level Estimated
07:26PM 46.7390 -63.8108 57° Northeast  Level Estimated
07:27PM 46.8101 -63.6511 57° Northeast  Level Estimated
07:28PM 46.8810 -63.4910 57° Northeast  Level Estimated
07:29PM 46.9516 -63.3304 57° Northeast  Level Estimated
07:30PM 47.0221 -63.1695 57° Northeast  Level Estimated
07:31PM 47.0923 -63.0081 57° Northeast  Level Estimated
07:32PM 47.1622 -62.8463 57° Northeast  Level Estimated
07:33PM 47.2320 -62.6841 58° Northeast  Level Estimated
07:34PM 47.3015 -62.5214 58° Northeast  Level Estimated
07:35PM 47.3708 -62.3583 58° Northeast  Level Estimated
07:36PM 47.4398 -62.1948 58° Northeast  Level Estimated
07:37PM 47.5086 -62.0309 58° Northeast  Level Estimated
07:38PM 47.5772 -61.8665 58° Northeast  Level Estimated
07:39PM 47.6456 -61.7017 58° Northeast  Level Estimated
07:40PM 47.7137 -61.5365 58° Northeast  Level Estimated
07:41PM 47.7816 -61.3708 59° Northeast  Level Estimated
07:42PM 47.8492 -61.2048 59° Northeast  Level Estimated
07:43PM 47.9166 -61.0382 59° Northeast  Level Estimated
07:44PM 47.9837 -60.8713 59° Northeast  Level Estimated
07:45PM 48.0507 -60.7039 59° Northeast  Level Estimated
07:46PM 48.1173 -60.5360 59° Northeast  Level Estimated
07:47PM 48.1837 -60.3678 59° Northeast  Level Estimated
07:48PM 48.2499 -60.1991 59° Northeast  Level Estimated
07:49PM 48.3158 -60.0299 60° Northeast  Level Estimated
07:50PM 48.3815 -59.8604 60° Northeast  Level Estimated
07:51PM 48.4470 -59.6903 60° Northeast  Level Estimated
07:52PM 48.5121 -59.5199 60° Northeast  Level Estimated
07:53PM 48.5771 -59.3490 60° Northeast  Level Estimated
07:54PM 48.6417 -59.1777 60° Northeast  Level Estimated
07:55PM 48.7062 -59.0059 60° Northeast  Level Estimated
07:56PM 48.7703 -58.8337 60° Northeast  Level Estimated
07:57PM 48.8342 -58.6610 61° Northeast  Level Estimated
07:58PM 48.8979 -58.4879 61° Northeast  Level Estimated
07:59PM 48.9613 -58.3144 61° Northeast  Level Estimated
08:00PM 49.0244 -58.1404 61° Northeast  Level Estimated
08:01PM 49.0873 -57.9660 61° Northeast  Level Estimated
08:02PM 49.1499 -57.7912 61° Northeast  Level Estimated
08:03PM 49.2122 -57.6159 61° Northeast  Level Estimated
08:04PM 49.2743 -57.4402 62° Northeast  Level Estimated
08:05PM 49.3361 -57.2640 62° Northeast  Level Estimated
08:06PM 49.3976 -57.0874 62° Northeast  Level Estimated
08:07PM 49.4589 -56.9103 62° Northeast  Level Estimated
08:08PM 49.5199 -56.7328 62° Northeast  Level Estimated
08:09PM 49.5806 -56.5549 62° Northeast  Level Estimated
08:10PM 49.6410 -56.3765 62° Northeast  Level Estimated
08:11PM 49.7012 -56.1977 62° Northeast  Level Estimated
08:12PM 49.7611 -56.0184 63° Northeast  Level Estimated
08:13PM 49.8207 -55.8387 63° Northeast  Level Estimated
08:14PM 49.8801 -55.6585 63° Northeast  Level Estimated
08:15PM 49.9391 -55.4779 63° Northeast  Level Estimated
08:16PM 49.9979 -55.2969 63° Northeast  Level Estimated
08:17PM 50.0564 -55.1154 63° Northeast  Level Estimated
08:18PM 50.1146 -54.9335 63° Northeast  Level Estimated
08:19PM 50.1726 -54.7511 64° Northeast  Level Estimated
08:20PM 50.2302 -54.5683 64° Northeast  Level Estimated
08:21PM 50.2876 -54.3851 64° Northeast  Level Estimated
08:22PM 50.3446 -54.2014 64° Northeast  Level Estimated
08:23PM 50.4014 -54.0173 64° Northeast  Level Estimated
08:24PM 50.4579 -53.8327 64° Northeast  Level Estimated
08:25PM 50.5141 -53.6477 64° Northeast  Level Estimated
08:26PM 50.5700 -53.4622 65° Northeast  Level Estimated
08:27PM 50.6256 -53.2763 65° Northeast  Level Estimated
08:28PM 50.6809 -53.0900 65° Northeast  Level Estimated
08:29PM 50.7359 -52.9032 65° Northeast  Level Estimated
08:30PM 50.7906 -52.7160 65° Northeast  Level Estimated
08:31PM 50.8450 -52.5284 65° Northeast  Level Estimated
08:32PM 50.8991 -52.3403 65° Northeast  Level Estimated
08:33PM 50.9529 -52.1518 66° East  Level Estimated
08:34PM 51.0064 -51.9628 66° East  Level Estimated
08:35PM 51.0596 -51.7734 66° East  Level Estimated
08:36PM 51.1125 -51.5836 66° East  Level Estimated
08:37PM 51.1651 -51.3934 66° East  Level Estimated
08:38PM 51.2174 -51.2027 66° East  Level Estimated
08:39PM 51.2693 -51.0116 66° East  Level Estimated
08:40PM 51.3210 -50.8200 67° East  Level Estimated
08:41PM 51.3723 -50.6280 67° East  Level Estimated
08:42PM 51.4234 -50.4356 67° East  Level Estimated
08:43PM 51.4741 -50.2428 67° East  Level Estimated
08:44PM 51.5244 -50.0495 67° East  Level Estimated
08:45PM 51.5745 -49.8558 67° East  Level Estimated
08:46PM 51.6243 -49.6617 68° East  Level Estimated
08:47PM 51.6737 -49.4671 68° East  Level Estimated
08:48PM 51.7228 -49.2722 68° East  Level Estimated
08:49PM 51.7716 -49.0768 68° East  Level Estimated
08:50PM 51.8201 -48.8810 68° East  Level Estimated
08:51PM 51.8682 -48.6847 68° East  Level Estimated
08:52PM 51.9160 -48.4881 68° East  Level Estimated
08:53PM 51.9635 -48.2910 69° East  Level Estimated
08:54PM 52.0106 -48.0935 69° East  Level Estimated
08:55PM 52.0575 -47.8956 69° East  Level Estimated
08:56PM 52.1040 -47.6973 69° East  Level Estimated
08:57PM 52.1501 -47.4986 69° East  Level Estimated
08:58PM 52.1959 -47.2994 69° East  Level Estimated
08:59PM 52.2414 -47.0999 70° East  Level Estimated
09:00PM 52.2865 -46.8999 70° East  Level Estimated
09:01PM 52.3314 -46.6996 70° East  Level Estimated
09:02PM 52.3758 -46.4988 70° East  Level Estimated
09:03PM 52.4200 -46.2976 70° East  Level Estimated
09:04PM 52.4637 -46.0961 70° East  Level Estimated
09:05PM 52.5072 -45.8941 70° East  Level Estimated
09:06PM 52.5503 -45.6917 71° East  Level Estimated
09:07PM 52.5930 -45.4889 71° East  Level Estimated
09:08PM 52.6354 -45.2858 71° East  Level Estimated
09:09PM 52.6775 -45.0822 71° East  Level Estimated
09:10PM 52.7192 -44.8783 71° East  Level Estimated
09:11PM 52.7606 -44.6739 71° East  Level Estimated
09:12PM 52.8016 -44.4692 72° East  Level Estimated
09:13PM 52.8422 -44.2641 72° East  Level Estimated
09:14PM 52.8825 -44.0586 72° East  Level Estimated
09:15PM 52.9225 -43.8527 72° East  Level Estimated
09:16PM 52.9621 -43.6465 72° East  Level Estimated
09:17PM 53.0013 -43.4399 72° East  Level Estimated
09:18PM 53.0402 -43.2329 73° East  Level Estimated
09:19PM 53.0787 -43.0255 73° East  Level Estimated
09:20PM 53.1168 -42.8178 73° East  Level Estimated
09:21PM 53.1546 -42.6097 73° East  Level Estimated
09:22PM 53.1920 -42.4012 73° East  Level Estimated
09:23PM 53.2291 -42.1924 73° East  Level Estimated
09:24PM 53.2658 -41.9832 74° East  Level Estimated
09:25PM 53.3021 -41.7736 74° East  Level Estimated
09:26PM 53.3381 -41.5637 74° East  Level Estimated
09:27PM 53.3737 -41.3535 74° East  Level Estimated
09:28PM 53.4089 -41.1428 74° East  Level Estimated
09:29PM 53.4437 -40.9319 74° East  Level Estimated
09:30PM 53.4782 -40.7206 75° East  Level Estimated
09:31PM 53.5123 -40.5089 75° East  Level Estimated
09:32PM 53.5461 -40.2970 75° East  Level Estimated
09:33PM 53.5794 -40.0846 75° East  Level Estimated
09:34PM 53.6124 -39.8720 75° East  Level Estimated
09:35PM 53.6450 -39.6590 75° East  Level Estimated
09:36PM 53.6772 -39.4457 76° East  Level Estimated
09:37PM 53.7090 -39.2321 76° East  Level Estimated
09:38PM 53.7405 -39.0181 76° East  Level Estimated
09:39PM 53.7716 -38.8038 76° East  Level Estimated
09:40PM 53.8023 -38.5892 76° East  Level Estimated
09:41PM 53.8326 -38.3744 76° East  Level Estimated
09:42PM 53.8625 -38.1591 77° East  Level Estimated
09:43PM 53.8921 -37.9436 77° East  Level Estimated
09:44PM 53.9212 -37.7278 77° East  Level Estimated
09:45PM 53.9500 -37.5117 77° East  Level Estimated
09:46PM 53.9784 -37.2953 77° East  Level Estimated
09:47PM 54.0064 -37.0785 78° East  Level Estimated
09:48PM 54.0340 -36.8615 78° East  Level Estimated
09:49PM 54.0612 -36.6443 78° East  Level Estimated
09:50PM 54.0880 -36.4267 78° East  Level Estimated
09:51PM 54.1144 -36.2088 78° East  Level Estimated
09:52PM 54.1404 -35.9907 78° East  Level Estimated
09:53PM 54.1661 -35.7723 79° East  Level Estimated
09:54PM 54.1913 -35.5536 79° East  Level Estimated
09:55PM 54.2162 -35.3347 79° East  Level Estimated
09:56PM 54.2406 -35.1155 79° East  Level Estimated
09:57PM 54.2647 -34.8961 79° East  Level Estimated
09:58PM 54.2883 -34.6764 79° East  Level Estimated
09:59PM 54.3116 -34.4564 80° East  Level Estimated
10:00PM 54.3344 -34.2362 80° East  Level Estimated
10:01PM 54.3569 -34.0158 80° East  Level Estimated
10:02PM 54.3789 -33.7951 80° East  Level Estimated
10:03PM 54.4006 -33.5742 80° East  Level Estimated
10:04PM 54.4218 -33.3530 81° East  Level Estimated
10:05PM 54.4426 -33.1317 81° East  Level Estimated
10:06PM 54.4631 -32.9101 81° East  Level Estimated
10:07PM 54.4831 -32.6882 81° East  Level Estimated
10:08PM 54.5027 -32.4662 81° East  Level Estimated
10:09PM 54.5219 -32.2440 81° East  Level Estimated
10:10PM 54.5407 -32.0215 82° East  Level Estimated
10:11PM 54.5591 -31.7989 82° East  Level Estimated
10:12PM 54.5771 -31.5760 82° East  Level Estimated
10:13PM 54.5947 -31.3530 82° East  Level Estimated
10:14PM 54.6118 -31.1297 82° East  Level Estimated
10:15PM 54.6286 -30.9063 83° East  Level Estimated
10:16PM 54.6449 -30.6827 83° East  Level Estimated
10:17PM 54.6609 -30.4589 83° East  Level Estimated
10:18PM 54.6764 -30.2350 83° East  Level Estimated
10:19PM 54.6915 -30.0108 83° East  Level Estimated
10:20PM 54.7062 -29.7866 83° East  Level Estimated
10:21PM 54.7204 -29.5621 84° East  Level Estimated
10:22PM 54.7343 -29.3375 84° East  Level Estimated
10:23PM 54.7477 -29.1127 84° East  Level Estimated
10:24PM 54.7608 -28.8878 84° East  Level Estimated
10:25PM 54.7734 -28.6628 84° East  Level Estimated
10:26PM 54.7856 -28.4376 85° East  Level Estimated
10:27PM 54.7974 -28.2123 85° East  Level Estimated
10:28PM 54.8087 -27.9868 85° East  Level Estimated
10:29PM 54.8197 -27.7613 85° East  Level Estimated
10:30PM 54.8302 -27.5356 85° East  Level Estimated
10:31PM 54.8403 -27.3098 85° East  Level Estimated
10:32PM 54.8500 -27.0838 86° East  Level Estimated
10:33PM 54.8593 -26.8578 86° East  Level Estimated
10:34PM 54.8681 -26.6317 86° East  Level Estimated
10:35PM 54.8765 -26.4055 86° East  Level Estimated
10:36PM 54.8846 -26.1792 86° East  Level Estimated
10:37PM 54.8922 -25.9528 87° East  Level Estimated
10:38PM 54.8993 -25.7263 87° East  Level Estimated
10:39PM 54.9061 -25.4997 87° East  Level Estimated
10:40PM 54.9124 -25.2731 87° East  Level Estimated
10:41PM 54.9183 -25.0464 87° East  Level Estimated
10:42PM 54.9238 -24.8196 87° East  Level Estimated
10:43PM 54.9288 -24.5928 88° East  Level Estimated
10:44PM 54.9334 -24.3659 88° East  Level Estimated
10:45PM 54.9377 -24.1390 88° East  Level Estimated
10:46PM 54.9414 -23.9120 88° East  Level Estimated
10:47PM 54.9448 -23.6849 88° East  Level Estimated
10:48PM 54.9478 -23.4579 89° East  Level Estimated
10:49PM 54.9503 -23.2308 89° East  Level Estimated
10:50PM 54.9524 -23.0037 89° East  Level Estimated
10:51PM 54.9540 -22.7766 89° East  Level Estimated
10:52PM 54.9553 -22.5494 89° East  Level Estimated
10:53PM 54.9561 -22.3223 90° East  Level Estimated
10:54PM 54.9565 -22.0951 90° East  Level Estimated
10:55PM 54.9565 -21.8679 90° East  Level Estimated
10:56PM 54.9561 -21.6407 90° East  Level Estimated
10:57PM 54.9552 -21.4136 90° East  Level Estimated
10:58PM 54.9539 -21.1864 90° East  Level Estimated
10:59PM 54.9522 -20.9593 91° East  Level Estimated
11:00PM 54.9501 -20.7322 91° East  Level Estimated
11:01PM 54.9475 -20.5051 91° East  Level Estimated
11:02PM 54.9445 -20.2781 91° East  Level Estimated
11:03PM 54.9411 -20.0510 91° East  Level Estimated
11:04PM 54.9373 -19.8241 92° East  Level Estimated
11:05PM 54.9330 -19.5971 92° East  Level Estimated
11:06PM 54.9284 -19.3703 92° East  Level Estimated
11:07PM 54.9233 -19.1434 92° East  Level Estimated
11:08PM 54.9177 -18.9167 92° East  Level Estimated
11:09PM 54.9118 -18.6900 93° East  Level Estimated
11:10PM 54.9054 -18.4633 93° East  Level Estimated
11:11PM 54.8987 -18.2368 93° East  Level Estimated
11:12PM 54.8914 -18.0103 93° East  Level Estimated
11:13PM 54.8838 -17.7839 93° East  Level Estimated
11:14PM 54.8758 -17.5576 93° East  Level Estimated
11:15PM 54.8673 -17.3314 94° East  Level Estimated
11:16PM 54.8584 -17.1053 94° East  Level Estimated
11:17PM 54.8491 -16.8793 94° East  Level Estimated
11:18PM 54.8394 -16.6534 94° East  Level Estimated
11:19PM 54.8292 -16.4275 94° East  Level Estimated
11:20PM 54.8187 -16.2019 95° East  Level Estimated
11:21PM 54.8077 -15.9763 95° East  Level Estimated
11:22PM 54.7963 -15.7509 95° East  Level Estimated
11:23PM 54.7845 -15.5256 95° East  Level Estimated
11:24PM 54.7722 -15.3004 95° East  Level Estimated
11:25PM 54.7596 -15.0754 95° East  Level Estimated
11:26PM 54.7465 -14.8505 96° East  Level Estimated
11:27PM 54.7330 -14.6257 96° East  Level Estimated
11:28PM 54.7191 -14.4011 96° East  Level Estimated
11:29PM 54.7048 -14.1767 96° East  Level Estimated
11:30PM 54.6901 -13.9524 96° East  Level Estimated
11:31PM 54.6749 -13.7283 97° East  Level Estimated
11:32PM 54.6594 -13.5044 97° East  Level Estimated
11:33PM 54.6434 -13.2806 97° East  Level Estimated
11:34PM 54.6270 -13.0570 97° East  Level Estimated
11:35PM 54.6102 -12.8336 97° East  Level Estimated
11:36PM 54.5930 -12.6104 97° East  Level Estimated
11:37PM 54.5754 -12.3874 98° East  Level Estimated
11:38PM 54.5574 -12.1645 98° East  Level Estimated
11:39PM 54.5390 -11.9419 98° East  Level Estimated
11:40PM 54.5201 -11.7195 98° East  Level Estimated
11:41PM 54.5009 -11.4972 98° East  Level Estimated
11:42PM 54.4812 -11.2752 99° East  Level Estimated
11:43PM 54.4612 -11.0534 99° East  Level Estimated
11:44PM 54.4407 -10.8319 99° East  Level Estimated
11:45PM 54.4198 -10.6105 99° East  Level Estimated
11:46PM 54.3985 -10.3894 99° East  Level Estimated
11:47PM 54.3769 -10.1685 99° East  Level Estimated
11:48PM 54.3548 -9.9478 100° East  Level Estimated
11:49PM 54.3323 -9.7274 100° East  Level Estimated
11:50PM 54.3094 -9.5072 100° East  Level Estimated
11:51PM 54.2861 -9.2873 100° East  Level Estimated
11:52PM 54.2624 -9.0676 100° East  Level Estimated
11:53PM 54.2383 -8.8482 101° East  Level Estimated
11:54PM 54.2139 -8.6290 101° East  Level Estimated
11:55PM 54.1890 -8.4101 101° East  Level Estimated
11:56PM 54.1637 -8.1915 101° East  Level Estimated
11:57PM 54.1380 -7.9731 101° East  Level Estimated
11:58PM 54.1120 -7.7550 101° East  Level Estimated
11:59PM 54.0855 -7.5372 102° East  Level Estimated
12:00AM 54.0587 -7.3196 102° East  Level Estimated
12:01AM 54.0314 -7.1024 102° East  Level Estimated
12:02AM 54.0038 -6.8854 102° East  Level Estimated
12:03AM 53.9757 -6.6687 102° East  Level Estimated
12:04AM 53.9473 -6.4523 102° East  Level Estimated
12:05AM 53.9185 -6.2362 103° East  Level Estimated
12:06AM 53.8893 -6.0205 103° East  Level Estimated
12:07AM 53.8597 -5.8050 103° East  Level Estimated
12:08AM 53.8298 -5.5898 103° East  Level Estimated
12:09AM 53.7994 -5.3749 103° East  Level Estimated
12:10AM 53.7687 -5.1603 104° East  Level Estimated
12:11AM 53.7376 -4.9461 104° East  Level Estimated
12:12AM 53.7061 -4.7322 104° East  Level Estimated
12:13AM 53.6742 -4.5186 104° East  Level Estimated
12:14AM 53.6419 -4.3053 104° East  Level Estimated
12:15AM 53.6093 -4.0923 104° East  Level Estimated
12:16AM 53.5763 -3.8797 105° East  Level Estimated
12:17AM 53.5429 -3.6674 105° East  Level Estimated
12:18AM 53.5092 -3.4555 105° East  Level Estimated
12:19AM 53.4750 -3.2439 105° East  Level Estimated
12:20AM 53.4405 -3.0326 105° East  Level Estimated
12:21AM 53.4056 -2.8217 105° East  Level Estimated
12:22AM 53.3704 -2.6111 106° East  Level Estimated
12:23AM 53.3348 -2.4009 106° East  Level Estimated
12:24AM 53.2988 -2.1910 106° East  Level Estimated
12:25AM 53.2624 -1.9815 106° East  Level Estimated
12:26AM 53.2257 -1.7723 106° East  Level Estimated
12:27AM 53.1886 -1.5635 106° East  Level Estimated
12:28AM 53.1511 -1.3551 107° East  Level Estimated
12:29AM 53.1133 -1.1470 107° East  Level Estimated
12:30AM 53.0751 -0.9393 107° East  Level Estimated
12:31AM 53.0366 -0.7320 107° East  Level Estimated
12:32AM 52.9977 -0.5250 107° East  Level Estimated
12:33AM 52.9584 -0.3184 107° East  Level Estimated
12:34AM 52.9188 -0.1122 108° East  Level Estimated
12:35AM 52.8788 0.0936 108° East  Level Estimated
12:36AM 52.8385 0.2991 108° East  Level Estimated
12:37AM 52.7978 0.5041 108° East  Level Estimated
12:38AM 52.7568 0.7088 108° East  Level Estimated
12:39AM 52.7154 0.9131 108° East  Level Estimated
12:40AM 52.6736 1.1171 109° East  Level Estimated
12:41AM 52.6315 1.3206 109° East  Level Estimated
12:42AM 52.5891 1.5237 109° East  Level Estimated
12:43AM 52.5463 1.7264 109° East  Level Estimated
12:44AM 52.5032 1.9288 109° East  Level Estimated
12:45AM 52.4597 2.1307 109° East  Level Estimated
12:46AM 52.4159 2.3322 110° East  Level Estimated
12:47AM 52.3717 2.5334 110° East  Level Estimated
12:48AM 52.3273 2.7341 110° East  Level Estimated
12:49AM 52.2824 2.9344 110° East  Level Estimated
12:50AM 52.2372 3.1344 110° East  Level Estimated
12:51AM 52.1917 3.3339 110° East  Level Estimated
12:52AM 52.1459 3.5330 111° Southeast  Level Estimated
12:53AM 52.0997 3.7317 111° Southeast  Level Estimated
12:54AM 52.0532 3.9299 111° Southeast  Level Estimated
12:55AM 52.0063 4.1278 111° Southeast  Level Estimated
12:56AM 51.9591 4.3253 111° Southeast  Level Estimated
12:57AM 51.9116 4.5223 111° Southeast  Level Estimated
12:58AM 51.8638 4.7189 111° Southeast  Level Estimated
12:59AM 51.8156 4.9151 112° Southeast  Level Estimated
01:00AM 51.7671 5.1109 112° Southeast  Level Estimated
01:01AM 51.7183 5.3062 112° Southeast  Level Estimated
01:02AM 51.6692 5.5012 112° Southeast  Level Estimated
01:03AM 51.6197 5.6957 112° Southeast  Level Estimated
01:04AM 51.5699 5.8898 112° Southeast  Level Estimated
01:05AM 51.5198 6.0834 113° Southeast  Level Estimated
01:06AM 51.4694 6.2766 113° Southeast  Level Estimated
01:07AM 51.4187 6.4694 113° Southeast  Level Estimated
01:08AM 51.3676 6.6618 113° Southeast  Level Estimated
01:09AM 51.3162 6.8538 113° Southeast  Level Estimated
01:10AM 51.2645 7.0453 113° Southeast  Level Estimated
01:11AM 51.2126 7.2363 113° Southeast  Level Estimated
01:12AM 51.1603 7.4270 114° Southeast  Level Estimated
01:13AM 51.1077 7.6172 114° Southeast  Level Estimated
01:14AM 51.0547 7.8070 114° Southeast  Level Estimated
01:15AM 51.0015 7.9963 114° Southeast  Level Estimated
01:16AM 50.9480 8.1853 114° Southeast  Level Estimated
01:17AM 50.8941 8.3737 114° Southeast  Level Estimated
01:18AM 50.8400 8.5618 114° Southeast  Level Estimated
01:19AM 50.7855 8.7494 115° Southeast  Level Estimated
01:20AM 50.7308 8.9365 115° Southeast  Level Estimated
01:21AM 50.6758 9.1233 115° Southeast  Level Estimated
01:22AM 50.6204 9.3096 115° Southeast  Level Estimated
01:23AM 50.5648 9.4954 115° Southeast  Level Estimated
01:24AM 50.5089 9.6808 115° Southeast  Level Estimated
01:25AM 50.4526 9.8658 115° Southeast  Level Estimated
01:26AM 50.3961 10.0503 116° Southeast  Level Estimated
01:27AM 50.3393 10.2344 116° Southeast  Level Estimated
01:28AM 50.2822 10.4181 116° Southeast  Level Estimated
01:29AM 50.2249 10.6013 116° Southeast  Level Estimated
01:30AM 50.1672 10.7840 116° Southeast  Level Estimated
01:31AM 50.1092 10.9664 116° Southeast  Level Estimated
01:32AM 50.0510 11.1482 116° Southeast  Level Estimated
01:33AM 49.9925 11.3297 117° Southeast  Level Estimated
01:34AM 49.9337 11.5107 117° Southeast  Level Estimated
01:35AM 49.8746 11.6912 117° Southeast  Level Estimated
01:36AM 49.8152 11.8714 117° Southeast  Level Estimated
01:37AM 49.7556 12.0510 117° Southeast  Level Estimated
01:38AM 49.6956 12.2303 117° Southeast  Level Estimated
01:39AM 49.6354 12.4090 117° Southeast  Level Estimated
01:40AM 49.5750 12.5874 118° Southeast  Level Estimated
01:41AM 49.5142 12.7653 118° Southeast  Level Estimated
01:42AM 49.4532 12.9427 118° Southeast  Level Estimated
01:43AM 49.3919 13.1198 118° Southeast  Level Estimated
01:44AM 49.3303 13.2963 118° Southeast  Level Estimated
01:45AM 49.2685 13.4725 118° Southeast  Level Estimated
01:46AM 49.2064 13.6482 118° Southeast  Level Estimated
01:47AM 49.1441 13.8234 118° Southeast  Level Estimated
01:48AM 49.0814 13.9982 119° Southeast  Level Estimated
01:49AM 49.0185 14.1726 119° Southeast  Level Estimated
01:50AM 48.9554 14.3465 119° Southeast  Level Estimated
01:51AM 48.8920 14.5200 119° Southeast  Level Estimated
01:52AM 48.8283 14.6930 119° Southeast  Level Estimated
01:53AM 48.7644 14.8656 119° Southeast  Level Estimated
01:54AM 48.7002 15.0378 119° Southeast  Level Estimated
01:55AM 48.6357 15.2095 120° Southeast  Level Estimated
01:56AM 48.5710 15.3808 120° Southeast  Level Estimated
01:57AM 48.5061 15.5517 120° Southeast  Level Estimated
01:58AM 48.4409 15.7221 120° Southeast  Level Estimated
01:59AM 48.3754 15.8920 120° Southeast  Level Estimated
02:00AM 48.3097 16.0616 120° Southeast  Level Estimated
02:01AM 48.2438 16.2307 120° Southeast  Level Estimated
02:02AM 48.1776 16.3993 120° Southeast  Level Estimated
02:03AM 48.1111 16.5676 121° Southeast  Level Estimated
02:04AM 48.1103 16.5697 121° Southeast  Level Estimated
02:05AM 48.1103 16.5697 146° Southeast  Level Estimated
02:06AM 48.1103 16.5697 146° Southeast  Level Estimated
02:07AM 48.1103 16.5697 146° Southeast  Level Estimated
02:08AM 48.1103 16.5697 146° Southeast  Level Estimated
02:09AM 48.1103 16.5697 146° Southeast  Level Estimated
02:10AM 48.1103 16.5697 146° Southeast  Level Estimated
02:11AM 48.1103 16.5697 146° Southeast  Level Estimated
02:12AM 48.1103 16.5697 146° Southeast  Level Estimated
02:13AM 48.1103 16.5697 146° Southeast  Level Estimated
02:14AM 48.1103 16.5697 146° Southeast  Level Estimated
02:15AM 48.1103 16.5697 146° Southeast  Level Estimated
02:16AM 48.1103 16.5697 146° Southeast  Level Estimated
02:17AM 48.1103 16.5697 146° Southeast  Level Estimated
02:18AM 48.1103 16.5697 146° Southeast  Level Estimated
02:19AM 48.1103 16.5697 146° Southeast  Level Estimated